sensor_id;sensor_type;location;lat;lon;timestamp;P1;durP1;ratioP1;P2;durP2;ratioP2
42332;SDS011;27984;51.476;5.702;2023-08-30T00:00:45;12.98;;;9.10;;
42332;SDS011;27984;51.476;5.702;2023-08-30T00:03:12;11.50;;;9.27;;
42332;SDS011;27984;51.476;5.702;2023-08-30T00:05:38;12.82;;;9.80;;
42332;SDS011;27984;51.476;5.702;2023-08-30T00:08:05;11.07;;;9.90;;
42332;SDS011;27984;51.476;5.702;2023-08-30T00:10:38;15.43;;;10.05;;
42332;SDS011;27984;51.476;5.702;2023-08-30T00:13:07;16.13;;;10.35;;
42332;SDS011;27984;51.476;5.702;2023-08-30T00:15:36;13.55;;;10.10;;
42332;SDS011;27984;51.476;5.702;2023-08-30T00:18:02;15.02;;;10.07;;
42332;SDS011;27984;51.476;5.702;2023-08-30T00:20:30;14.02;;;10.10;;
42332;SDS011;27984;51.476;5.702;2023-08-30T00:22:56;13.75;;;10.70;;
42332;SDS011;27984;51.476;5.702;2023-08-30T00:25:22;16.20;;;10.20;;
42332;SDS011;27984;51.476;5.702;2023-08-30T00:27:48;11.52;;;10.13;;
42332;SDS011;27984;51.476;5.702;2023-08-30T00:30:17;14.02;;;10.07;;
42332;SDS011;27984;51.476;5.702;2023-08-30T00:32:43;15.25;;;9.70;;
42332;SDS011;27984;51.476;5.702;2023-08-30T00:35:09;13.07;;;9.75;;
42332;SDS011;27984;51.476;5.702;2023-08-30T00:37:35;14.55;;;10.57;;
42332;SDS011;27984;51.476;5.702;2023-08-30T00:40:01;12.15;;;9.10;;
42332;SDS011;27984;51.476;5.702;2023-08-30T00:42:28;15.45;;;9.75;;
42332;SDS011;27984;51.476;5.702;2023-08-30T00:44:54;13.73;;;9.30;;
42332;SDS011;27984;51.476;5.702;2023-08-30T00:47:20;17.30;;;9.93;;
42332;SDS011;27984;51.476;5.702;2023-08-30T00:49:46;12.82;;;9.88;;
42332;SDS011;27984;51.476;5.702;2023-08-30T00:52:12;13.68;;;9.88;;
42332;SDS011;27984;51.476;5.702;2023-08-30T00:54:38;14.30;;;9.93;;
42332;SDS011;27984;51.476;5.702;2023-08-30T00:57:04;13.80;;;10.18;;
42332;SDS011;27984;51.476;5.702;2023-08-30T00:59:32;15.10;;;9.75;;
42332;SDS011;27984;51.476;5.702;2023-08-30T01:01:58;16.38;;;9.77;;
42332;SDS011;27984;51.476;5.702;2023-08-30T01:04:26;13.57;;;10.30;;
42332;SDS011;27984;51.476;5.702;2023-08-30T01:06:52;12.00;;;9.73;;
42332;SDS011;27984;51.476;5.702;2023-08-30T01:09:18;15.02;;;9.48;;
42332;SDS011;27984;51.476;5.702;2023-08-30T01:14:15;14.40;;;9.75;;
42332;SDS011;27984;51.476;5.702;2023-08-30T01:16:42;15.77;;;9.85;;
42332;SDS011;27984;51.476;5.702;2023-08-30T01:19:34;16.67;;;10.00;;
42332;SDS011;27984;51.476;5.702;2023-08-30T01:22:11;15.60;;;10.20;;
42332;SDS011;27984;51.476;5.702;2023-08-30T01:27:18;13.77;;;10.20;;
42332;SDS011;27984;51.476;5.702;2023-08-30T01:29:45;16.27;;;10.23;;
42332;SDS011;27984;51.476;5.702;2023-08-30T01:32:11;13.63;;;9.57;;
42332;SDS011;27984;51.476;5.702;2023-08-30T01:34:38;13.77;;;10.43;;
42332;SDS011;27984;51.476;5.702;2023-08-30T01:37:06;15.30;;;9.85;;
42332;SDS011;27984;51.476;5.702;2023-08-30T01:39:33;12.85;;;9.50;;
42332;SDS011;27984;51.476;5.702;2023-08-30T01:41:59;13.73;;;10.25;;
42332;SDS011;27984;51.476;5.702;2023-08-30T01:44:29;12.57;;;9.95;;
42332;SDS011;27984;51.476;5.702;2023-08-30T01:46:56;13.57;;;10.07;;
42332;SDS011;27984;51.476;5.702;2023-08-30T01:49:25;15.18;;;9.95;;
42332;SDS011;27984;51.476;5.702;2023-08-30T01:51:52;16.00;;;10.45;;
42332;SDS011;27984;51.476;5.702;2023-08-30T01:54:18;13.70;;;9.52;;
42332;SDS011;27984;51.476;5.702;2023-08-30T01:56:46;16.55;;;10.57;;
42332;SDS011;27984;51.476;5.702;2023-08-30T01:59:12;13.63;;;10.32;;
42332;SDS011;27984;51.476;5.702;2023-08-30T02:01:38;11.68;;;9.60;;
42332;SDS011;27984;51.476;5.702;2023-08-30T02:04:04;15.88;;;9.82;;
42332;SDS011;27984;51.476;5.702;2023-08-30T02:06:36;13.98;;;10.88;;
42332;SDS011;27984;51.476;5.702;2023-08-30T02:09:07;14.98;;;10.88;;
42332;SDS011;27984;51.476;5.702;2023-08-30T02:11:35;14.07;;;10.55;;
42332;SDS011;27984;51.476;5.702;2023-08-30T02:14:03;15.88;;;11.15;;
42332;SDS011;27984;51.476;5.702;2023-08-30T02:16:31;15.10;;;10.57;;
42332;SDS011;27984;51.476;5.702;2023-08-30T02:18:58;16.25;;;11.65;;
42332;SDS011;27984;51.476;5.702;2023-08-30T02:21:24;15.43;;;11.35;;
42332;SDS011;27984;51.476;5.702;2023-08-30T02:23:50;16.45;;;11.63;;
42332;SDS011;27984;51.476;5.702;2023-08-30T02:26:22;16.45;;;11.55;;
42332;SDS011;27984;51.476;5.702;2023-08-30T02:28:48;14.15;;;10.95;;
42332;SDS011;27984;51.476;5.702;2023-08-30T02:31:14;17.83;;;11.95;;
42332;SDS011;27984;51.476;5.702;2023-08-30T02:33:40;17.67;;;11.43;;
42332;SDS011;27984;51.476;5.702;2023-08-30T02:36:06;17.90;;;12.93;;
42332;SDS011;27984;51.476;5.702;2023-08-30T02:38:33;14.82;;;12.23;;
42332;SDS011;27984;51.476;5.702;2023-08-30T02:40:59;22.02;;;13.13;;
42332;SDS011;27984;51.476;5.702;2023-08-30T02:43:25;15.82;;;13.18;;
42332;SDS011;27984;51.476;5.702;2023-08-30T02:45:51;19.42;;;13.10;;
42332;SDS011;27984;51.476;5.702;2023-08-30T02:48:20;18.05;;;13.65;;
42332;SDS011;27984;51.476;5.702;2023-08-30T02:50:46;16.90;;;13.55;;
42332;SDS011;27984;51.476;5.702;2023-08-30T02:53:12;19.00;;;13.68;;
42332;SDS011;27984;51.476;5.702;2023-08-30T02:55:38;20.55;;;14.15;;
42332;SDS011;27984;51.476;5.702;2023-08-30T02:58:04;20.02;;;14.15;;
42332;SDS011;27984;51.476;5.702;2023-08-30T03:00:30;18.77;;;14.20;;
42332;SDS011;27984;51.476;5.702;2023-08-30T03:02:56;19.20;;;13.48;;
42332;SDS011;27984;51.476;5.702;2023-08-30T03:05:22;19.08;;;14.25;;
42332;SDS011;27984;51.476;5.702;2023-08-30T03:07:48;22.15;;;15.02;;
42332;SDS011;27984;51.476;5.702;2023-08-30T03:10:14;20.85;;;13.95;;
42332;SDS011;27984;51.476;5.702;2023-08-30T03:12:40;20.45;;;14.40;;
42332;SDS011;27984;51.476;5.702;2023-08-30T03:15:06;19.45;;;14.48;;
42332;SDS011;27984;51.476;5.702;2023-08-30T03:17:32;19.40;;;15.23;;
42332;SDS011;27984;51.476;5.702;2023-08-30T04:29:15;31.85;;;20.83;;
42332;SDS011;27984;51.476;5.702;2023-08-30T04:31:59;28.45;;;21.50;;
42332;SDS011;27984;51.476;5.702;2023-08-30T04:35:02;31.02;;;22.15;;
42332;SDS011;27984;51.476;5.702;2023-08-30T04:37:51;29.33;;;21.25;;
42332;SDS011;27984;51.476;5.702;2023-08-30T04:40:27;29.75;;;21.60;;
42332;SDS011;27984;51.476;5.702;2023-08-30T05:01:32;30.50;;;21.30;;
42332;SDS011;27984;51.476;5.702;2023-08-30T05:34:30;23.10;;;17.58;;
42332;SDS011;27984;51.476;5.702;2023-08-30T05:40:37;22.45;;;17.40;;
42332;SDS011;27984;51.476;5.702;2023-08-30T05:43:13;22.08;;;16.92;;
42332;SDS011;27984;51.476;5.702;2023-08-30T05:46:07;21.60;;;17.23;;
42332;SDS011;27984;51.476;5.702;2023-08-30T05:48:59;24.27;;;17.67;;
42332;SDS011;27984;51.476;5.702;2023-08-30T05:52:02;25.63;;;17.25;;
42332;SDS011;27984;51.476;5.702;2023-08-30T05:54:48;23.88;;;17.13;;
42332;SDS011;27984;51.476;5.702;2023-08-30T05:57:15;22.98;;;17.55;;
42332;SDS011;27984;51.476;5.702;2023-08-30T05:59:54;24.73;;;17.95;;
42332;SDS011;27984;51.476;5.702;2023-08-30T06:02:45;26.77;;;18.27;;
42332;SDS011;27984;51.476;5.702;2023-08-30T06:05:22;24.80;;;18.30;;
42332;SDS011;27984;51.476;5.702;2023-08-30T06:08:11;24.23;;;18.23;;
42332;SDS011;27984;51.476;5.702;2023-08-30T06:10:40;27.17;;;18.30;;
42332;SDS011;27984;51.476;5.702;2023-08-30T06:16:20;27.33;;;19.05;;
42332;SDS011;27984;51.476;5.702;2023-08-30T06:18:49;23.73;;;17.92;;
42332;SDS011;27984;51.476;5.702;2023-08-30T06:21:18;25.92;;;18.90;;
42332;SDS011;27984;51.476;5.702;2023-08-30T06:23:51;23.90;;;18.08;;
42332;SDS011;27984;51.476;5.702;2023-08-30T06:26:46;20.27;;;17.42;;
42332;SDS011;27984;51.476;5.702;2023-08-30T06:31:56;27.70;;;17.13;;
42332;SDS011;27984;51.476;5.702;2023-08-30T06:34:29;23.77;;;16.63;;
42332;SDS011;27984;51.476;5.702;2023-08-30T06:37:05;23.35;;;16.80;;
42332;SDS011;27984;51.476;5.702;2023-08-30T06:39:34;20.67;;;15.60;;
42332;SDS011;27984;51.476;5.702;2023-08-30T06:42:01;21.63;;;15.48;;
42332;SDS011;27984;51.476;5.702;2023-08-30T06:44:29;19.38;;;15.35;;
42332;SDS011;27984;51.476;5.702;2023-08-30T06:46:56;21.88;;;14.88;;
42332;SDS011;27984;51.476;5.702;2023-08-30T06:49:27;19.38;;;14.57;;
42332;SDS011;27984;51.476;5.702;2023-08-30T06:59:55;15.55;;;12.32;;
42332;SDS011;27984;51.476;5.702;2023-08-30T07:02:32;17.23;;;12.65;;
42332;SDS011;27984;51.476;5.702;2023-08-30T08:20:58;14.48;;;9.70;;
42332;SDS011;27984;51.476;5.702;2023-08-30T08:26:35;12.18;;;8.82;;
42332;SDS011;27984;51.476;5.702;2023-08-30T08:29:01;14.63;;;9.00;;
42332;SDS011;27984;51.476;5.702;2023-08-30T08:31:33;11.70;;;9.38;;
42332;SDS011;27984;51.476;5.702;2023-08-30T08:36:57;16.38;;;8.88;;
42332;SDS011;27984;51.476;5.702;2023-08-30T08:39:23;14.60;;;8.52;;
42332;SDS011;27984;51.476;5.702;2023-08-30T08:41:52;14.38;;;8.88;;
42332;SDS011;27984;51.476;5.702;2023-08-30T08:44:19;11.30;;;8.80;;
42332;SDS011;27984;51.476;5.702;2023-08-30T08:46:46;11.93;;;8.30;;
42332;SDS011;27984;51.476;5.702;2023-08-30T08:49:19;9.98;;;8.00;;
42332;SDS011;27984;51.476;5.702;2023-08-30T08:51:45;12.73;;;8.40;;
42332;SDS011;27984;51.476;5.702;2023-08-30T08:54:11;10.85;;;8.82;;
42332;SDS011;27984;51.476;5.702;2023-08-30T08:56:38;12.48;;;8.30;;
42332;SDS011;27984;51.476;5.702;2023-08-30T08:59:07;11.60;;;8.20;;
42332;SDS011;27984;51.476;5.702;2023-08-30T09:01:36;10.15;;;7.00;;
42332;SDS011;27984;51.476;5.702;2023-08-30T09:04:07;13.20;;;8.02;;
42332;SDS011;27984;51.476;5.702;2023-08-30T09:06:34;12.50;;;8.50;;
42332;SDS011;27984;51.476;5.702;2023-08-30T09:09:01;9.63;;;7.45;;
42332;SDS011;27984;51.476;5.702;2023-08-30T09:11:28;11.90;;;7.57;;
42332;SDS011;27984;51.476;5.702;2023-08-30T09:13:54;11.10;;;7.40;;
42332;SDS011;27984;51.476;5.702;2023-08-30T09:16:20;10.35;;;7.53;;
42332;SDS011;27984;51.476;5.702;2023-08-30T09:19:02;13.48;;;7.97;;
42332;SDS011;27984;51.476;5.702;2023-08-30T09:21:29;10.75;;;7.65;;
42332;SDS011;27984;51.476;5.702;2023-08-30T09:24:05;12.68;;;7.80;;
42332;SDS011;27984;51.476;5.702;2023-08-30T09:26:33;11.38;;;8.60;;
42332;SDS011;27984;51.476;5.702;2023-08-30T09:29:07;13.20;;;7.82;;
42332;SDS011;27984;51.476;5.702;2023-08-30T09:31:37;11.07;;;8.20;;
42332;SDS011;27984;51.476;5.702;2023-08-30T09:34:06;11.23;;;8.52;;
42332;SDS011;27984;51.476;5.702;2023-08-30T09:36:33;10.63;;;8.15;;
42332;SDS011;27984;51.476;5.702;2023-08-30T09:39:08;8.63;;;7.65;;
42332;SDS011;27984;51.476;5.702;2023-08-30T09:41:46;11.60;;;7.60;;
42332;SDS011;27984;51.476;5.702;2023-08-30T09:44:22;9.82;;;7.70;;
42332;SDS011;27984;51.476;5.702;2023-08-30T09:46:53;9.00;;;7.53;;
42332;SDS011;27984;51.476;5.702;2023-08-30T09:49:20;10.38;;;7.72;;
42332;SDS011;27984;51.476;5.702;2023-08-30T09:51:46;10.80;;;7.68;;
42332;SDS011;27984;51.476;5.702;2023-08-30T09:54:17;10.52;;;7.75;;
42332;SDS011;27984;51.476;5.702;2023-08-30T09:56:43;9.48;;;7.35;;
42332;SDS011;27984;51.476;5.702;2023-08-30T09:59:13;8.50;;;6.95;;
42332;SDS011;27984;51.476;5.702;2023-08-30T10:01:40;9.65;;;7.35;;
42332;SDS011;27984;51.476;5.702;2023-08-30T10:04:06;9.30;;;7.72;;
42332;SDS011;27984;51.476;5.702;2023-08-30T10:06:33;8.88;;;7.03;;
42332;SDS011;27984;51.476;5.702;2023-08-30T10:09:00;7.50;;;6.70;;
42332;SDS011;27984;51.476;5.702;2023-08-30T10:11:28;8.75;;;6.50;;
42332;SDS011;27984;51.476;5.702;2023-08-30T10:13:55;6.95;;;5.45;;
42332;SDS011;27984;51.476;5.702;2023-08-30T10:16:22;6.47;;;5.68;;
42332;SDS011;27984;51.476;5.702;2023-08-30T10:18:50;6.40;;;3.90;;
42332;SDS011;27984;51.476;5.702;2023-08-30T10:21:18;4.00;;;3.30;;
42332;SDS011;27984;51.476;5.702;2023-08-30T10:23:45;4.07;;;3.55;;
42332;SDS011;27984;51.476;5.702;2023-08-30T10:26:12;3.88;;;2.67;;
42332;SDS011;27984;51.476;5.702;2023-08-30T10:28:38;3.15;;;2.60;;
42332;SDS011;27984;51.476;5.702;2023-08-30T10:31:05;4.68;;;2.90;;
42332;SDS011;27984;51.476;5.702;2023-08-30T10:33:31;6.22;;;3.08;;
42332;SDS011;27984;51.476;5.702;2023-08-30T10:36:06;3.88;;;3.50;;
42332;SDS011;27984;51.476;5.702;2023-08-30T10:38:32;4.10;;;3.70;;
42332;SDS011;27984;51.476;5.702;2023-08-30T10:41:06;5.90;;;3.85;;
42332;SDS011;27984;51.476;5.702;2023-08-30T10:43:33;5.53;;;3.50;;
42332;SDS011;27984;51.476;5.702;2023-08-30T10:46:03;3.42;;;3.13;;
42332;SDS011;27984;51.476;5.702;2023-08-30T10:48:35;4.55;;;3.50;;
42332;SDS011;27984;51.476;5.702;2023-08-30T10:51:01;4.32;;;3.90;;
42332;SDS011;27984;51.476;5.702;2023-08-30T10:53:30;5.13;;;4.15;;
42332;SDS011;27984;51.476;5.702;2023-08-30T11:14:52;4.40;;;3.15;;
42332;SDS011;27984;51.476;5.702;2023-08-30T11:17:35;4.22;;;3.17;;
42332;SDS011;27984;51.476;5.702;2023-08-30T11:25:55;3.30;;;2.80;;
42332;SDS011;27984;51.476;5.702;2023-08-30T11:28:57;5.95;;;3.35;;
42332;SDS011;27984;51.476;5.702;2023-08-30T11:31:25;4.53;;;3.35;;
42332;SDS011;27984;51.476;5.702;2023-08-30T11:33:54;3.78;;;3.13;;
42332;SDS011;27984;51.476;5.702;2023-08-30T11:36:23;4.28;;;3.33;;
42332;SDS011;27984;51.476;5.702;2023-08-30T11:38:49;5.25;;;3.30;;
42332;SDS011;27984;51.476;5.702;2023-08-30T11:41:18;3.88;;;3.33;;
42332;SDS011;27984;51.476;5.702;2023-08-30T11:50:02;4.65;;;3.47;;
42332;SDS011;27984;51.476;5.702;2023-08-30T11:52:42;5.25;;;3.65;;
42332;SDS011;27984;51.476;5.702;2023-08-30T11:55:08;4.95;;;4.20;;
42332;SDS011;27984;51.476;5.702;2023-08-30T11:57:37;5.53;;;3.95;;
42332;SDS011;27984;51.476;5.702;2023-08-30T12:00:13;4.05;;;3.45;;
42332;SDS011;27984;51.476;5.702;2023-08-30T12:02:40;6.55;;;3.83;;
42332;SDS011;27984;51.476;5.702;2023-08-30T12:05:10;6.38;;;3.72;;
42332;SDS011;27984;51.476;5.702;2023-08-30T12:07:36;4.30;;;3.90;;
42332;SDS011;27984;51.476;5.702;2023-08-30T12:10:07;5.43;;;4.07;;
42332;SDS011;27984;51.476;5.702;2023-08-30T12:19:11;7.10;;;5.03;;
42332;SDS011;27984;51.476;5.702;2023-08-30T12:42:37;8.80;;;2.35;;
42332;SDS011;27984;51.476;5.702;2023-08-30T12:45:06;4.88;;;2.20;;
42332;SDS011;27984;51.476;5.702;2023-08-30T12:47:32;5.38;;;2.08;;
42332;SDS011;27984;51.476;5.702;2023-08-30T12:50:01;7.35;;;2.08;;
42332;SDS011;27984;51.476;5.702;2023-08-30T13:03:37;8.82;;;2.53;;
42332;SDS011;27984;51.476;5.702;2023-08-30T13:12:27;8.82;;;2.92;;
42332;SDS011;27984;51.476;5.702;2023-08-30T13:18:28;9.20;;;2.60;;
42332;SDS011;27984;51.476;5.702;2023-08-30T13:21:17;7.93;;;2.72;;
42332;SDS011;27984;51.476;5.702;2023-08-30T13:26:44;7.70;;;2.10;;
42332;SDS011;27984;51.476;5.702;2023-08-30T13:29:10;4.68;;;1.67;;
42332;SDS011;27984;51.476;5.702;2023-08-30T13:31:39;9.15;;;1.88;;
42332;SDS011;27984;51.476;5.702;2023-08-30T13:34:05;7.45;;;2.08;;
42332;SDS011;27984;51.476;5.702;2023-08-30T13:36:42;6.65;;;2.00;;
42332;SDS011;27984;51.476;5.702;2023-08-30T13:42:11;6.40;;;1.77;;
42332;SDS011;27984;51.476;5.702;2023-08-30T13:47:34;7.60;;;2.85;;
42332;SDS011;27984;51.476;5.702;2023-08-30T13:50:03;7.03;;;2.05;;
42332;SDS011;27984;51.476;5.702;2023-08-30T13:58:57;6.65;;;1.77;;
42332;SDS011;27984;51.476;5.702;2023-08-30T14:01:23;7.55;;;2.20;;
42332;SDS011;27984;51.476;5.702;2023-08-30T14:04:02;6.63;;;2.10;;
42332;SDS011;27984;51.476;5.702;2023-08-30T14:06:49;5.38;;;1.85;;
42332;SDS011;27984;51.476;5.702;2023-08-30T14:09:24;10.07;;;2.17;;
42332;SDS011;27984;51.476;5.702;2023-08-30T14:11:58;6.38;;;1.90;;
42332;SDS011;27984;51.476;5.702;2023-08-30T14:14:28;6.03;;;1.90;;
42332;SDS011;27984;51.476;5.702;2023-08-30T15:39:59;5.68;;;1.27;;
42332;SDS011;27984;51.476;5.702;2023-08-30T15:42:29;8.50;;;1.30;;
42332;SDS011;27984;51.476;5.702;2023-08-30T15:44:55;4.63;;;1.30;;
42332;SDS011;27984;51.476;5.702;2023-08-30T15:47:21;3.38;;;1.00;;
42332;SDS011;27984;51.476;5.702;2023-08-30T15:49:47;3.63;;;1.20;;
42332;SDS011;27984;51.476;5.702;2023-08-30T15:52:13;6.07;;;1.25;;
42332;SDS011;27984;51.476;5.702;2023-08-30T15:54:39;6.13;;;1.70;;
42332;SDS011;27984;51.476;5.702;2023-08-30T15:57:05;2.85;;;1.13;;
42332;SDS011;27984;51.476;5.702;2023-08-30T15:59:31;5.45;;;1.00;;
42332;SDS011;27984;51.476;5.702;2023-08-30T16:01:57;3.92;;;1.30;;
42332;SDS011;27984;51.476;5.702;2023-08-30T16:04:23;3.50;;;1.23;;
42332;SDS011;27984;51.476;5.702;2023-08-30T16:06:49;4.15;;;1.20;;
42332;SDS011;27984;51.476;5.702;2023-08-30T16:09:15;4.75;;;1.27;;
42332;SDS011;27984;51.476;5.702;2023-08-30T16:11:41;5.57;;;1.27;;
42332;SDS011;27984;51.476;5.702;2023-08-30T16:14:07;4.60;;;1.50;;
42332;SDS011;27984;51.476;5.702;2023-08-30T16:16:35;5.47;;;1.45;;
42332;SDS011;27984;51.476;5.702;2023-08-30T16:19:01;7.90;;;1.58;;
42332;SDS011;27984;51.476;5.702;2023-08-30T16:21:27;5.20;;;1.48;;
42332;SDS011;27984;51.476;5.702;2023-08-30T16:23:53;5.80;;;1.33;;
42332;SDS011;27984;51.476;5.702;2023-08-30T16:26:19;6.70;;;1.10;;
42332;SDS011;27984;51.476;5.702;2023-08-30T16:28:45;4.60;;;1.00;;
42332;SDS011;27984;51.476;5.702;2023-08-30T16:31:11;5.95;;;1.05;;
42332;SDS011;27984;51.476;5.702;2023-08-30T16:33:38;2.78;;;1.20;;
42332;SDS011;27984;51.476;5.702;2023-08-30T16:36:04;5.60;;;1.10;;
42332;SDS011;27984;51.476;5.702;2023-08-30T16:38:30;4.28;;;1.02;;
42332;SDS011;27984;51.476;5.702;2023-08-30T16:40:57;1.63;;;1.10;;
42332;SDS011;27984;51.476;5.702;2023-08-30T16:43:28;5.93;;;1.02;;
42332;SDS011;27984;51.476;5.702;2023-08-30T16:45:54;4.97;;;1.02;;
42332;SDS011;27984;51.476;5.702;2023-08-30T16:48:22;4.05;;;1.17;;
42332;SDS011;27984;51.476;5.702;2023-08-30T16:50:48;3.75;;;0.93;;
42332;SDS011;27984;51.476;5.702;2023-08-30T16:53:15;3.30;;;1.15;;
42332;SDS011;27984;51.476;5.702;2023-08-30T16:55:41;2.25;;;0.80;;
42332;SDS011;27984;51.476;5.702;2023-08-30T16:58:07;6.80;;;1.17;;
42332;SDS011;27984;51.476;5.702;2023-08-30T17:00:33;2.35;;;0.70;;
42332;SDS011;27984;51.476;5.702;2023-08-30T17:02:59;4.45;;;0.95;;
42332;SDS011;27984;51.476;5.702;2023-08-30T17:05:25;4.78;;;1.10;;
42332;SDS011;27984;51.476;5.702;2023-08-30T17:07:51;5.30;;;1.10;;
42332;SDS011;27984;51.476;5.702;2023-08-30T17:10:18;2.53;;;0.95;;
42332;SDS011;27984;51.476;5.702;2023-08-30T17:12:44;3.35;;;1.10;;
42332;SDS011;27984;51.476;5.702;2023-08-30T17:15:10;4.85;;;1.02;;
42332;SDS011;27984;51.476;5.702;2023-08-30T17:17:36;7.00;;;1.10;;
42332;SDS011;27984;51.476;5.702;2023-08-30T17:20:02;5.63;;;1.13;;
42332;SDS011;27984;51.476;5.702;2023-08-30T17:22:29;4.00;;;0.90;;
42332;SDS011;27984;51.476;5.702;2023-08-30T17:24:55;4.10;;;0.95;;
42332;SDS011;27984;51.476;5.702;2023-08-30T17:27:21;5.10;;;0.95;;
42332;SDS011;27984;51.476;5.702;2023-08-30T17:29:47;7.43;;;1.10;;
42332;SDS011;27984;51.476;5.702;2023-08-30T17:32:13;2.70;;;1.13;;
42332;SDS011;27984;51.476;5.702;2023-08-30T17:34:39;3.88;;;0.82;;
42332;SDS011;27984;51.476;5.702;2023-08-30T17:37:05;4.28;;;0.93;;
42332;SDS011;27984;51.476;5.702;2023-08-30T17:39:35;5.28;;;1.23;;
42332;SDS011;27984;51.476;5.702;2023-08-30T17:42:02;4.00;;;1.60;;
42332;SDS011;27984;51.476;5.702;2023-08-30T17:44:28;6.43;;;1.40;;
42332;SDS011;27984;51.476;5.702;2023-08-30T17:46:54;4.93;;;1.42;;
42332;SDS011;27984;51.476;5.702;2023-08-30T17:49:20;4.45;;;1.27;;
42332;SDS011;27984;51.476;5.702;2023-08-30T17:51:46;5.30;;;1.23;;
42332;SDS011;27984;51.476;5.702;2023-08-30T17:54:15;4.45;;;1.17;;
42332;SDS011;27984;51.476;5.702;2023-08-30T17:56:44;4.88;;;1.20;;
42332;SDS011;27984;51.476;5.702;2023-08-30T17:59:10;4.07;;;1.20;;
42332;SDS011;27984;51.476;5.702;2023-08-30T18:01:38;6.30;;;1.30;;
42332;SDS011;27984;51.476;5.702;2023-08-30T18:04:05;5.45;;;1.38;;
42332;SDS011;27984;51.476;5.702;2023-08-30T18:06:31;3.88;;;1.17;;
42332;SDS011;27984;51.476;5.702;2023-08-30T18:08:57;4.68;;;1.20;;
42332;SDS011;27984;51.476;5.702;2023-08-30T18:11:23;6.45;;;1.58;;
42332;SDS011;27984;51.476;5.702;2023-08-30T18:17:04;5.85;;;1.42;;
42332;SDS011;27984;51.476;5.702;2023-08-30T18:22:53;4.03;;;1.02;;
42332;SDS011;27984;51.476;5.702;2023-08-30T18:25:30;4.82;;;1.33;;
42332;SDS011;27984;51.476;5.702;2023-08-30T18:27:55;5.70;;;1.33;;
42332;SDS011;27984;51.476;5.702;2023-08-30T18:33:47;6.93;;;1.50;;
42332;SDS011;27984;51.476;5.702;2023-08-30T18:36:13;5.15;;;1.30;;
42332;SDS011;27984;51.476;5.702;2023-08-30T18:38:41;5.75;;;1.52;;
42332;SDS011;27984;51.476;5.702;2023-08-30T18:41:07;3.30;;;1.30;;
42332;SDS011;27984;51.476;5.702;2023-08-30T18:43:33;3.33;;;1.38;;
42332;SDS011;27984;51.476;5.702;2023-08-30T18:45:59;2.10;;;1.13;;
42332;SDS011;27984;51.476;5.702;2023-08-30T18:48:25;6.82;;;1.20;;
42332;SDS011;27984;51.476;5.702;2023-08-30T18:50:51;6.95;;;1.30;;
42332;SDS011;27984;51.476;5.702;2023-08-30T18:53:20;6.60;;;1.48;;
42332;SDS011;27984;51.476;5.702;2023-08-30T18:55:56;5.70;;;1.45;;
42332;SDS011;27984;51.476;5.702;2023-08-30T18:58:22;4.78;;;1.35;;
42332;SDS011;27984;51.476;5.702;2023-08-30T19:00:50;4.85;;;1.25;;
42332;SDS011;27984;51.476;5.702;2023-08-30T19:03:16;2.03;;;1.30;;
42332;SDS011;27984;51.476;5.702;2023-08-30T19:05:45;7.00;;;1.73;;
42332;SDS011;27984;51.476;5.702;2023-08-30T19:08:11;4.78;;;1.52;;
42332;SDS011;27984;51.476;5.702;2023-08-30T19:10:40;4.70;;;1.30;;
42332;SDS011;27984;51.476;5.702;2023-08-30T19:13:21;4.65;;;1.35;;
42332;SDS011;27984;51.476;5.702;2023-08-30T19:15:50;4.65;;;1.50;;
42332;SDS011;27984;51.476;5.702;2023-08-30T19:18:33;5.85;;;1.77;;
42332;SDS011;27984;51.476;5.702;2023-08-30T19:20:59;5.28;;;1.60;;
42332;SDS011;27984;51.476;5.702;2023-08-30T19:23:26;2.00;;;1.30;;
42332;SDS011;27984;51.476;5.702;2023-08-30T19:25:53;3.08;;;1.33;;
42332;SDS011;27984;51.476;5.702;2023-08-30T19:28:20;2.75;;;1.40;;
42332;SDS011;27984;51.476;5.702;2023-08-30T19:30:46;6.70;;;1.63;;
42332;SDS011;27984;51.476;5.702;2023-08-30T19:33:12;7.47;;;1.30;;
42332;SDS011;27984;51.476;5.702;2023-08-30T19:35:38;5.15;;;1.20;;
42332;SDS011;27984;51.476;5.702;2023-08-30T19:38:04;8.05;;;1.80;;
42332;SDS011;27984;51.476;5.702;2023-08-30T19:40:30;4.95;;;1.40;;
42332;SDS011;27984;51.476;5.702;2023-08-30T19:42:56;5.35;;;1.42;;
42332;SDS011;27984;51.476;5.702;2023-08-30T19:45:22;6.13;;;1.48;;
42332;SDS011;27984;51.476;5.702;2023-08-30T19:47:51;6.43;;;1.75;;
42332;SDS011;27984;51.476;5.702;2023-08-30T19:50:17;5.03;;;1.60;;
42332;SDS011;27984;51.476;5.702;2023-08-30T19:52:49;4.72;;;1.50;;
42332;SDS011;27984;51.476;5.702;2023-08-30T19:55:15;4.55;;;1.75;;
42332;SDS011;27984;51.476;5.702;2023-08-30T19:57:41;4.22;;;1.65;;
42332;SDS011;27984;51.476;5.702;2023-08-30T20:00:13;6.97;;;1.85;;
42332;SDS011;27984;51.476;5.702;2023-08-30T20:02:39;3.50;;;1.35;;
42332;SDS011;27984;51.476;5.702;2023-08-30T20:05:05;4.65;;;1.50;;
42332;SDS011;27984;51.476;5.702;2023-08-30T20:07:31;4.32;;;1.50;;
42332;SDS011;27984;51.476;5.702;2023-08-30T20:09:57;4.38;;;1.48;;
42332;SDS011;27984;51.476;5.702;2023-08-30T20:12:23;6.28;;;1.40;;
42332;SDS011;27984;51.476;5.702;2023-08-30T20:14:49;4.43;;;1.55;;
42332;SDS011;27984;51.476;5.702;2023-08-30T20:17:15;6.68;;;1.83;;
42332;SDS011;27984;51.476;5.702;2023-08-30T20:19:41;4.60;;;1.70;;
42332;SDS011;27984;51.476;5.702;2023-08-30T20:22:07;5.80;;;1.75;;
42332;SDS011;27984;51.476;5.702;2023-08-30T20:24:33;3.67;;;1.73;;
42332;SDS011;27984;51.476;5.702;2023-08-30T20:27:00;4.97;;;1.60;;
42332;SDS011;27984;51.476;5.702;2023-08-30T20:29:26;4.25;;;1.70;;
42332;SDS011;27984;51.476;5.702;2023-08-30T20:31:51;5.38;;;1.65;;
42332;SDS011;27984;51.476;5.702;2023-08-30T20:34:20;4.47;;;2.00;;
42332;SDS011;27984;51.476;5.702;2023-08-30T20:36:46;9.57;;;2.20;;
42332;SDS011;27984;51.476;5.702;2023-08-30T20:39:12;5.03;;;1.90;;
42332;SDS011;27984;51.476;5.702;2023-08-30T20:41:38;8.50;;;2.25;;
42332;SDS011;27984;51.476;5.702;2023-08-30T20:44:07;5.18;;;1.90;;
42332;SDS011;27984;51.476;5.702;2023-08-30T20:46:34;6.82;;;2.10;;
42332;SDS011;27984;51.476;5.702;2023-08-30T20:49:02;6.43;;;2.00;;
42332;SDS011;27984;51.476;5.702;2023-08-30T20:51:28;4.60;;;1.90;;
42332;SDS011;27984;51.476;5.702;2023-08-30T20:53:57;4.10;;;2.03;;
42332;SDS011;27984;51.476;5.702;2023-08-30T20:56:26;4.82;;;2.22;;
42332;SDS011;27984;51.476;5.702;2023-08-30T20:58:53;5.88;;;2.10;;
42332;SDS011;27984;51.476;5.702;2023-08-30T21:01:22;4.00;;;2.03;;
42332;SDS011;27984;51.476;5.702;2023-08-30T21:03:51;5.30;;;2.40;;
42332;SDS011;27984;51.476;5.702;2023-08-30T21:06:17;3.42;;;2.08;;
42332;SDS011;27984;51.476;5.702;2023-08-30T21:08:43;5.22;;;2.40;;
42332;SDS011;27984;51.476;5.702;2023-08-30T21:11:12;6.38;;;2.13;;
42332;SDS011;27984;51.476;5.702;2023-08-30T21:13:38;6.10;;;2.40;;
42332;SDS011;27984;51.476;5.702;2023-08-30T21:16:04;5.90;;;2.70;;
42332;SDS011;27984;51.476;5.702;2023-08-30T21:18:30;7.95;;;2.55;;
42332;SDS011;27984;51.476;5.702;2023-08-30T21:20:57;5.72;;;2.53;;
42332;SDS011;27984;51.476;5.702;2023-08-30T21:23:23;7.38;;;2.70;;
42332;SDS011;27984;51.476;5.702;2023-08-30T21:25:49;5.10;;;2.58;;
42332;SDS011;27984;51.476;5.702;2023-08-30T21:28:15;5.93;;;2.65;;
42332;SDS011;27984;51.476;5.702;2023-08-30T21:30:42;10.70;;;3.55;;
42332;SDS011;27984;51.476;5.702;2023-08-30T21:33:08;7.25;;;3.45;;
42332;SDS011;27984;51.476;5.702;2023-08-30T21:35:38;5.60;;;3.15;;
42332;SDS011;27984;51.476;5.702;2023-08-30T21:38:11;8.30;;;3.40;;